sensor_id;sensor_type;location;lat;lon;timestamp;P1;durP1;ratioP1;P2;durP2;ratioP2
69310;SDS011;56430;48.154;16.458;2023-08-12T00:01:45;5.22;;;2.55;;
69310;SDS011;56430;48.154;16.458;2023-08-12T00:04:12;4.47;;;2.80;;
69310;SDS011;56430;48.154;16.458;2023-08-12T00:06:40;4.57;;;2.50;;
69310;SDS011;56430;48.154;16.458;2023-08-12T00:09:07;4.43;;;2.47;;
69310;SDS011;56430;48.154;16.458;2023-08-12T00:11:34;5.25;;;2.58;;
69310;SDS011;56430;48.154;16.458;2023-08-12T00:14:01;4.40;;;2.30;;
69310;SDS011;56430;48.154;16.458;2023-08-12T00:16:28;4.93;;;2.60;;
69310;SDS011;56430;48.154;16.458;2023-08-12T00:18:56;3.72;;;2.33;;
69310;SDS011;56430;48.154;16.458;2023-08-12T00:21:24;4.80;;;3.00;;
69310;SDS011;56430;48.154;16.458;2023-08-12T00:23:51;3.90;;;2.47;;
69310;SDS011;56430;48.154;16.458;2023-08-12T00:26:18;3.83;;;2.53;;
69310;SDS011;56430;48.154;16.458;2023-08-12T00:28:48;5.30;;;2.70;;
69310;SDS011;56430;48.154;16.458;2023-08-12T00:31:15;5.13;;;2.38;;
69310;SDS011;56430;48.154;16.458;2023-08-12T00:33:42;4.28;;;2.63;;
69310;SDS011;56430;48.154;16.458;2023-08-12T00:36:10;4.45;;;2.50;;
69310;SDS011;56430;48.154;16.458;2023-08-12T00:38:36;4.80;;;2.72;;
69310;SDS011;56430;48.154;16.458;2023-08-12T00:41:03;5.07;;;2.70;;
69310;SDS011;56430;48.154;16.458;2023-08-12T00:43:30;4.80;;;2.72;;
69310;SDS011;56430;48.154;16.458;2023-08-12T00:45:57;4.43;;;2.22;;
69310;SDS011;56430;48.154;16.458;2023-08-12T00:48:24;5.53;;;2.70;;
69310;SDS011;56430;48.154;16.458;2023-08-12T00:50:51;5.35;;;2.42;;
69310;SDS011;56430;48.154;16.458;2023-08-12T00:53:20;4.27;;;2.67;;
69310;SDS011;56430;48.154;16.458;2023-08-12T00:55:46;6.38;;;2.50;;
69310;SDS011;56430;48.154;16.458;2023-08-12T00:58:13;4.80;;;2.60;;
69310;SDS011;56430;48.154;16.458;2023-08-12T01:00:40;5.32;;;2.70;;
69310;SDS011;56430;48.154;16.458;2023-08-12T01:03:07;4.53;;;2.42;;
69310;SDS011;56430;48.154;16.458;2023-08-12T01:05:34;6.17;;;2.77;;
69310;SDS011;56430;48.154;16.458;2023-08-12T01:08:01;5.13;;;2.67;;
69310;SDS011;56430;48.154;16.458;2023-08-12T01:10:31;5.60;;;2.75;;
69310;SDS011;56430;48.154;16.458;2023-08-12T01:13:02;4.97;;;2.85;;
69310;SDS011;56430;48.154;16.458;2023-08-12T01:15:29;4.68;;;2.75;;
69310;SDS011;56430;48.154;16.458;2023-08-12T01:17:56;6.07;;;2.77;;
69310;SDS011;56430;48.154;16.458;2023-08-12T01:20:24;4.63;;;2.80;;
69310;SDS011;56430;48.154;16.458;2023-08-12T01:22:52;4.68;;;2.60;;
69310;SDS011;56430;48.154;16.458;2023-08-12T01:25:23;3.75;;;2.50;;
69310;SDS011;56430;48.154;16.458;2023-08-12T01:27:50;7.45;;;2.97;;
69310;SDS011;56430;48.154;16.458;2023-08-12T01:30:17;4.77;;;2.93;;
69310;SDS011;56430;48.154;16.458;2023-08-12T01:32:58;4.38;;;2.38;;
69310;SDS011;56430;48.154;16.458;2023-08-12T01:35:30;6.43;;;3.05;;
69310;SDS011;56430;48.154;16.458;2023-08-12T01:37:59;6.32;;;3.13;;
69310;SDS011;56430;48.154;16.458;2023-08-12T01:40:28;4.50;;;2.72;;
69310;SDS011;56430;48.154;16.458;2023-08-12T01:42:56;7.30;;;3.10;;
69310;SDS011;56430;48.154;16.458;2023-08-12T01:45:22;5.43;;;2.63;;
69310;SDS011;56430;48.154;16.458;2023-08-12T01:47:49;4.55;;;2.72;;
69310;SDS011;56430;48.154;16.458;2023-08-12T01:50:16;4.63;;;2.88;;
69310;SDS011;56430;48.154;16.458;2023-08-12T01:52:44;5.22;;;2.70;;
69310;SDS011;56430;48.154;16.458;2023-08-12T01:55:11;6.13;;;3.10;;
69310;SDS011;56430;48.154;16.458;2023-08-12T01:57:39;7.90;;;3.28;;
69310;SDS011;56430;48.154;16.458;2023-08-12T02:00:06;4.90;;;2.80;;
69310;SDS011;56430;48.154;16.458;2023-08-12T02:02:33;5.32;;;2.95;;
69310;SDS011;56430;48.154;16.458;2023-08-12T02:05:00;4.53;;;2.88;;
69310;SDS011;56430;48.154;16.458;2023-08-12T02:07:27;6.47;;;2.90;;
69310;SDS011;56430;48.154;16.458;2023-08-12T02:09:54;5.82;;;2.95;;
69310;SDS011;56430;48.154;16.458;2023-08-12T02:12:20;5.20;;;3.20;;
69310;SDS011;56430;48.154;16.458;2023-08-12T02:14:49;5.75;;;3.00;;
69310;SDS011;56430;48.154;16.458;2023-08-12T02:17:15;5.15;;;2.80;;
69310;SDS011;56430;48.154;16.458;2023-08-12T02:19:42;4.43;;;2.67;;
69310;SDS011;56430;48.154;16.458;2023-08-12T02:22:09;4.50;;;2.92;;
69310;SDS011;56430;48.154;16.458;2023-08-12T02:24:36;5.80;;;2.97;;
69310;SDS011;56430;48.154;16.458;2023-08-12T02:27:03;5.28;;;3.08;;
69310;SDS011;56430;48.154;16.458;2023-08-12T02:29:30;5.45;;;3.05;;
69310;SDS011;56430;48.154;16.458;2023-08-12T02:31:58;5.00;;;3.23;;
69310;SDS011;56430;48.154;16.458;2023-08-12T02:34:25;4.90;;;2.92;;
69310;SDS011;56430;48.154;16.458;2023-08-12T02:36:52;6.35;;;3.20;;
69310;SDS011;56430;48.154;16.458;2023-08-12T02:39:19;5.63;;;3.28;;
69310;SDS011;56430;48.154;16.458;2023-08-12T02:41:46;5.13;;;2.95;;
69310;SDS011;56430;48.154;16.458;2023-08-12T02:44:12;7.00;;;3.27;;
69310;SDS011;56430;48.154;16.458;2023-08-12T02:46:39;5.18;;;3.30;;
69310;SDS011;56430;48.154;16.458;2023-08-12T02:49:07;4.53;;;2.88;;
69310;SDS011;56430;48.154;16.458;2023-08-12T02:51:34;4.70;;;3.00;;
69310;SDS011;56430;48.154;16.458;2023-08-12T02:54:02;5.97;;;3.20;;
69310;SDS011;56430;48.154;16.458;2023-08-12T02:56:29;5.03;;;3.13;;
69310;SDS011;56430;48.154;16.458;2023-08-12T02:58:56;7.72;;;2.85;;
69310;SDS011;56430;48.154;16.458;2023-08-12T03:01:23;4.90;;;2.83;;
69310;SDS011;56430;48.154;16.458;2023-08-12T03:03:50;4.47;;;2.47;;
69310;SDS011;56430;48.154;16.458;2023-08-12T03:06:18;5.47;;;3.10;;
69310;SDS011;56430;48.154;16.458;2023-08-12T03:08:45;5.20;;;3.17;;
69310;SDS011;56430;48.154;16.458;2023-08-12T03:11:12;4.38;;;2.88;;
69310;SDS011;56430;48.154;16.458;2023-08-12T03:13:38;6.15;;;3.05;;
69310;SDS011;56430;48.154;16.458;2023-08-12T03:16:11;5.55;;;2.72;;
69310;SDS011;56430;48.154;16.458;2023-08-12T03:18:39;5.95;;;3.08;;
69310;SDS011;56430;48.154;16.458;2023-08-12T03:21:06;5.40;;;3.00;;
69310;SDS011;56430;48.154;16.458;2023-08-12T03:23:34;4.53;;;3.05;;
69310;SDS011;56430;48.154;16.458;2023-08-12T03:26:01;5.55;;;2.80;;
69310;SDS011;56430;48.154;16.458;2023-08-12T03:28:28;5.63;;;3.25;;
69310;SDS011;56430;48.154;16.458;2023-08-12T03:30:55;4.65;;;2.90;;
69310;SDS011;56430;48.154;16.458;2023-08-12T03:33:22;4.93;;;2.80;;
69310;SDS011;56430;48.154;16.458;2023-08-12T03:35:49;5.95;;;3.10;;
69310;SDS011;56430;48.154;16.458;2023-08-12T03:38:16;5.97;;;3.40;;
69310;SDS011;56430;48.154;16.458;2023-08-12T03:40:44;4.80;;;2.88;;
69310;SDS011;56430;48.154;16.458;2023-08-12T03:43:11;5.28;;;2.90;;
69310;SDS011;56430;48.154;16.458;2023-08-12T03:45:40;6.47;;;3.10;;
69310;SDS011;56430;48.154;16.458;2023-08-12T03:48:07;6.70;;;3.70;;
69310;SDS011;56430;48.154;16.458;2023-08-12T03:50:34;5.72;;;3.15;;
69310;SDS011;56430;48.154;16.458;2023-08-12T03:53:01;5.43;;;3.05;;
69310;SDS011;56430;48.154;16.458;2023-08-12T03:55:29;5.53;;;3.03;;
69310;SDS011;56430;48.154;16.458;2023-08-12T03:57:58;5.77;;;3.00;;
69310;SDS011;56430;48.154;16.458;2023-08-12T04:00:25;6.25;;;2.95;;
69310;SDS011;56430;48.154;16.458;2023-08-12T04:02:52;5.50;;;3.15;;
69310;SDS011;56430;48.154;16.458;2023-08-12T04:05:19;6.65;;;3.03;;
69310;SDS011;56430;48.154;16.458;2023-08-12T04:07:45;6.15;;;3.00;;
69310;SDS011;56430;48.154;16.458;2023-08-12T04:10:12;6.43;;;2.93;;
69310;SDS011;56430;48.154;16.458;2023-08-12T04:12:39;5.25;;;3.28;;
69310;SDS011;56430;48.154;16.458;2023-08-12T04:15:08;5.18;;;2.72;;
69310;SDS011;56430;48.154;16.458;2023-08-12T04:17:36;4.80;;;2.70;;
69310;SDS011;56430;48.154;16.458;2023-08-12T04:20:03;7.10;;;3.22;;
69310;SDS011;56430;48.154;16.458;2023-08-12T04:22:31;5.70;;;3.07;;
69310;SDS011;56430;48.154;16.458;2023-08-12T04:24:58;5.57;;;3.20;;
69310;SDS011;56430;48.154;16.458;2023-08-12T04:27:25;5.88;;;3.10;;
69310;SDS011;56430;48.154;16.458;2023-08-12T04:29:52;5.78;;;2.95;;
69310;SDS011;56430;48.154;16.458;2023-08-12T04:32:20;6.57;;;3.28;;
69310;SDS011;56430;48.154;16.458;2023-08-12T04:34:47;4.97;;;3.13;;
69310;SDS011;56430;48.154;16.458;2023-08-12T04:37:14;9.00;;;3.53;;
69310;SDS011;56430;48.154;16.458;2023-08-12T04:39:41;6.75;;;3.58;;
69310;SDS011;56430;48.154;16.458;2023-08-12T04:42:08;5.75;;;3.25;;
69310;SDS011;56430;48.154;16.458;2023-08-12T04:44:34;6.72;;;3.38;;
69310;SDS011;56430;48.154;16.458;2023-08-12T04:47:01;7.33;;;3.27;;
69310;SDS011;56430;48.154;16.458;2023-08-12T04:49:30;6.72;;;3.90;;
69310;SDS011;56430;48.154;16.458;2023-08-12T04:51:56;7.15;;;3.25;;
69310;SDS011;56430;48.154;16.458;2023-08-12T04:54:24;5.35;;;3.20;;
69310;SDS011;56430;48.154;16.458;2023-08-12T04:56:50;6.45;;;3.42;;
69310;SDS011;56430;48.154;16.458;2023-08-12T04:59:17;6.10;;;3.60;;
69310;SDS011;56430;48.154;16.458;2023-08-12T05:01:44;7.95;;;3.97;;
69310;SDS011;56430;48.154;16.458;2023-08-12T05:04:11;7.80;;;3.50;;
69310;SDS011;56430;48.154;16.458;2023-08-12T05:06:39;6.47;;;3.83;;
69310;SDS011;56430;48.154;16.458;2023-08-12T05:09:06;7.25;;;3.47;;
69310;SDS011;56430;48.154;16.458;2023-08-12T05:11:33;5.20;;;3.30;;
69310;SDS011;56430;48.154;16.458;2023-08-12T05:14:00;6.20;;;3.50;;
69310;SDS011;56430;48.154;16.458;2023-08-12T05:16:27;5.25;;;3.17;;
69310;SDS011;56430;48.154;16.458;2023-08-12T05:18:54;6.40;;;3.30;;
69310;SDS011;56430;48.154;16.458;2023-08-12T05:21:21;6.65;;;3.38;;
69310;SDS011;56430;48.154;16.458;2023-08-12T05:23:49;6.07;;;3.13;;
69310;SDS011;56430;48.154;16.458;2023-08-12T05:26:16;5.13;;;2.85;;
69310;SDS011;56430;48.154;16.458;2023-08-12T05:28:43;5.45;;;3.20;;
69310;SDS011;56430;48.154;16.458;2023-08-12T05:31:10;4.85;;;2.97;;
69310;SDS011;56430;48.154;16.458;2023-08-12T05:33:37;5.43;;;3.45;;
69310;SDS011;56430;48.154;16.458;2023-08-12T05:36:03;7.10;;;3.27;;
69310;SDS011;56430;48.154;16.458;2023-08-12T05:38:30;5.80;;;3.13;;
69310;SDS011;56430;48.154;16.458;2023-08-12T05:40:58;4.78;;;3.00;;
69310;SDS011;56430;48.154;16.458;2023-08-12T05:43:25;5.20;;;2.95;;
69310;SDS011;56430;48.154;16.458;2023-08-12T05:45:52;5.75;;;3.05;;
69310;SDS011;56430;48.154;16.458;2023-08-12T05:48:19;5.80;;;3.10;;
69310;SDS011;56430;48.154;16.458;2023-08-12T05:50:46;6.80;;;3.08;;
69310;SDS011;56430;48.154;16.458;2023-08-12T05:53:13;5.78;;;3.30;;
69310;SDS011;56430;48.154;16.458;2023-08-12T05:55:39;5.95;;;3.28;;
69310;SDS011;56430;48.154;16.458;2023-08-12T05:58:08;5.72;;;2.97;;
69310;SDS011;56430;48.154;16.458;2023-08-12T06:00:35;6.30;;;3.57;;
69310;SDS011;56430;48.154;16.458;2023-08-12T06:03:02;6.00;;;3.70;;
69310;SDS011;56430;48.154;16.458;2023-08-12T06:05:29;5.22;;;3.15;;
69310;SDS011;56430;48.154;16.458;2023-08-12T06:07:56;8.55;;;3.80;;
69310;SDS011;56430;48.154;16.458;2023-08-12T06:10:22;7.22;;;3.10;;
69310;SDS011;56430;48.154;16.458;2023-08-12T06:12:49;5.50;;;3.00;;
69310;SDS011;56430;48.154;16.458;2023-08-12T06:15:18;5.07;;;3.10;;
69310;SDS011;56430;48.154;16.458;2023-08-12T06:17:44;5.22;;;2.80;;
69310;SDS011;56430;48.154;16.458;2023-08-12T06:20:12;5.47;;;3.15;;
69310;SDS011;56430;48.154;16.458;2023-08-12T06:22:38;7.40;;;3.55;;
69310;SDS011;56430;48.154;16.458;2023-08-12T06:25:05;5.77;;;3.23;;
69310;SDS011;56430;48.154;16.458;2023-08-12T06:27:32;5.70;;;3.25;;
69310;SDS011;56430;48.154;16.458;2023-08-12T06:29:59;5.65;;;3.13;;
69310;SDS011;56430;48.154;16.458;2023-08-12T06:32:27;6.22;;;3.70;;
69310;SDS011;56430;48.154;16.458;2023-08-12T06:34:54;5.75;;;3.22;;
69310;SDS011;56430;48.154;16.458;2023-08-12T06:37:21;5.37;;;3.40;;
69310;SDS011;56430;48.154;16.458;2023-08-12T06:39:48;6.03;;;3.15;;
69310;SDS011;56430;48.154;16.458;2023-08-12T06:42:15;4.55;;;3.00;;
69310;SDS011;56430;48.154;16.458;2023-08-12T06:44:41;8.13;;;2.78;;
69310;SDS011;56430;48.154;16.458;2023-08-12T06:47:08;4.63;;;2.67;;
69310;SDS011;56430;48.154;16.458;2023-08-12T06:49:36;5.50;;;2.87;;
69310;SDS011;56430;48.154;16.458;2023-08-12T06:52:03;5.10;;;2.97;;
69310;SDS011;56430;48.154;16.458;2023-08-12T06:54:30;7.28;;;3.05;;
69310;SDS011;56430;48.154;16.458;2023-08-12T06:56:57;6.45;;;2.83;;
69310;SDS011;56430;48.154;16.458;2023-08-12T06:59:24;4.55;;;2.92;;
69310;SDS011;56430;48.154;16.458;2023-08-12T07:01:51;4.87;;;3.23;;
69310;SDS011;56430;48.154;16.458;2023-08-12T07:04:17;6.63;;;3.28;;
69310;SDS011;56430;48.154;16.458;2023-08-12T07:06:46;5.28;;;2.72;;
69310;SDS011;56430;48.154;16.458;2023-08-12T07:09:12;4.80;;;2.80;;
69310;SDS011;56430;48.154;16.458;2023-08-12T07:11:39;5.90;;;2.60;;
69310;SDS011;56430;48.154;16.458;2023-08-12T07:14:06;5.07;;;2.67;;
69310;SDS011;56430;48.154;16.458;2023-08-12T07:16:33;6.70;;;2.60;;
69310;SDS011;56430;48.154;16.458;2023-08-12T07:19:00;3.72;;;2.30;;
69310;SDS011;56430;48.154;16.458;2023-08-12T07:21:27;4.95;;;2.20;;
69310;SDS011;56430;48.154;16.458;2023-08-12T07:23:55;5.30;;;2.70;;
69310;SDS011;56430;48.154;16.458;2023-08-12T07:26:22;4.47;;;2.47;;
69310;SDS011;56430;48.154;16.458;2023-08-12T07:28:49;4.97;;;2.40;;
69310;SDS011;56430;48.154;16.458;2023-08-12T07:31:15;3.92;;;2.58;;
69310;SDS011;56430;48.154;16.458;2023-08-12T07:33:42;3.72;;;2.40;;
69310;SDS011;56430;48.154;16.458;2023-08-12T07:36:09;3.40;;;2.17;;
69310;SDS011;56430;48.154;16.458;2023-08-12T07:38:36;4.90;;;2.47;;
69310;SDS011;56430;48.154;16.458;2023-08-12T07:41:05;3.67;;;2.20;;
69310;SDS011;56430;48.154;16.458;2023-08-12T07:43:32;3.55;;;2.03;;
69310;SDS011;56430;48.154;16.458;2023-08-12T07:45:59;3.70;;;2.22;;
69310;SDS011;56430;48.154;16.458;2023-08-12T07:48:26;5.78;;;2.28;;
69310;SDS011;56430;48.154;16.458;2023-08-12T07:50:54;4.32;;;2.40;;
69310;SDS011;56430;48.154;16.458;2023-08-12T07:53:21;3.78;;;2.40;;
69310;SDS011;56430;48.154;16.458;2023-08-12T07:55:48;3.28;;;2.30;;
69310;SDS011;56430;48.154;16.458;2023-08-12T07:58:16;3.30;;;2.50;;
69310;SDS011;56430;48.154;16.458;2023-08-12T08:00:43;3.87;;;2.30;;
69310;SDS011;56430;48.154;16.458;2023-08-12T08:03:10;3.55;;;2.40;;
69310;SDS011;56430;48.154;16.458;2023-08-12T08:05:39;3.10;;;2.20;;
69310;SDS011;56430;48.154;16.458;2023-08-12T08:08:06;4.70;;;2.75;;
69310;SDS011;56430;48.154;16.458;2023-08-12T08:10:33;3.58;;;2.70;;
69310;SDS011;56430;48.154;16.458;2023-08-12T08:13:00;4.22;;;2.90;;
69310;SDS011;56430;48.154;16.458;2023-08-12T08:15:28;3.33;;;2.70;;
69310;SDS011;56430;48.154;16.458;2023-08-12T08:17:55;5.95;;;3.80;;
69310;SDS011;56430;48.154;16.458;2023-08-12T08:20:21;4.68;;;3.17;;
69310;SDS011;56430;48.154;16.458;2023-08-12T08:22:48;4.10;;;3.40;;
69310;SDS011;56430;48.154;16.458;2023-08-12T08:25:15;4.40;;;3.70;;
69310;SDS011;56430;48.154;16.458;2023-08-12T08:27:42;7.50;;;3.58;;
69310;SDS011;56430;48.154;16.458;2023-08-12T08:30:09;4.15;;;3.30;;
69310;SDS011;56430;48.154;16.458;2023-08-12T08:32:37;4.10;;;3.45;;
69310;SDS011;56430;48.154;16.458;2023-08-12T08:35:04;4.18;;;3.78;;
69310;SDS011;56430;48.154;16.458;2023-08-12T08:37:31;4.57;;;3.40;;
69310;SDS011;56430;48.154;16.458;2023-08-12T08:39:58;4.97;;;3.90;;
69310;SDS011;56430;48.154;16.458;2023-08-12T08:42:25;4.10;;;3.63;;
69310;SDS011;56430;48.154;16.458;2023-08-12T08:44:52;6.57;;;3.95;;
69310;SDS011;56430;48.154;16.458;2023-08-12T08:47:19;4.77;;;4.20;;
69310;SDS011;56430;48.154;16.458;2023-08-12T08:49:52;6.17;;;4.70;;
69310;SDS011;56430;48.154;16.458;2023-08-12T08:52:21;5.43;;;4.00;;
69310;SDS011;56430;48.154;16.458;2023-08-12T08:54:48;4.30;;;3.90;;
69310;SDS011;56430;48.154;16.458;2023-08-12T08:57:15;4.47;;;4.07;;
69310;SDS011;56430;48.154;16.458;2023-08-12T08:59:42;4.70;;;4.30;;
69310;SDS011;56430;48.154;16.458;2023-08-12T09:02:09;6.00;;;4.30;;
69310;SDS011;56430;48.154;16.458;2023-08-12T09:04:39;4.85;;;4.30;;
69310;SDS011;56430;48.154;16.458;2023-08-12T09:07:07;4.80;;;4.10;;
69310;SDS011;56430;48.154;16.458;2023-08-12T09:09:34;5.05;;;4.55;;
69310;SDS011;56430;48.154;16.458;2023-08-12T09:12:02;5.33;;;4.30;;
69310;SDS011;56430;48.154;16.458;2023-08-12T09:14:29;5.13;;;4.63;;
69310;SDS011;56430;48.154;16.458;2023-08-12T09:16:56;4.70;;;4.03;;
69310;SDS011;56430;48.154;16.458;2023-08-12T09:19:24;5.32;;;4.80;;
69310;SDS011;56430;48.154;16.458;2023-08-12T09:21:51;4.80;;;4.40;;
69310;SDS011;56430;48.154;16.458;2023-08-12T09:24:19;5.18;;;4.22;;
69310;SDS011;56430;48.154;16.458;2023-08-12T09:26:51;4.43;;;4.03;;
69310;SDS011;56430;48.154;16.458;2023-08-12T09:29:18;5.20;;;4.78;;
69310;SDS011;56430;48.154;16.458;2023-08-12T09:31:45;4.43;;;4.03;;
69310;SDS011;56430;48.154;16.458;2023-08-12T09:34:11;4.82;;;4.30;;
69310;SDS011;56430;48.154;16.458;2023-08-12T09:36:38;4.73;;;4.33;;
69310;SDS011;56430;48.154;16.458;2023-08-12T09:39:05;5.30;;;4.80;;
69310;SDS011;56430;48.154;16.458;2023-08-12T09:41:36;4.70;;;4.30;;
69310;SDS011;56430;48.154;16.458;2023-08-12T09:44:03;4.90;;;4.50;;
69310;SDS011;56430;48.154;16.458;2023-08-12T09:46:32;4.88;;;4.47;;
69310;SDS011;56430;48.154;16.458;2023-08-12T09:48:59;5.10;;;4.70;;
69310;SDS011;56430;48.154;16.458;2023-08-12T09:51:26;4.68;;;4.28;;
69310;SDS011;56430;48.154;16.458;2023-08-12T09:53:53;5.43;;;4.50;;
69310;SDS011;56430;48.154;16.458;2023-08-12T09:56:22;4.50;;;4.10;;
69310;SDS011;56430;48.154;16.458;2023-08-12T09:58:50;6.50;;;4.32;;
69310;SDS011;56430;48.154;16.458;2023-08-12T10:01:19;6.33;;;4.40;;
69310;SDS011;56430;48.154;16.458;2023-08-12T10:03:47;4.13;;;3.83;;
69310;SDS011;56430;48.154;16.458;2023-08-12T10:06:15;4.00;;;3.70;;
69310;SDS011;56430;48.154;16.458;2023-08-12T10:08:43;4.40;;;4.00;;
69310;SDS011;56430;48.154;16.458;2023-08-12T10:11:10;4.40;;;4.00;;
69310;SDS011;56430;48.154;16.458;2023-08-12T10:13:37;4.70;;;4.20;;
69310;SDS011;56430;48.154;16.458;2023-08-12T10:16:05;4.38;;;3.97;;
69310;SDS011;56430;48.154;16.458;2023-08-12T10:18:32;4.00;;;3.60;;
69310;SDS011;56430;48.154;16.458;2023-08-12T10:20:59;3.88;;;3.58;;
69310;SDS011;56430;48.154;16.458;2023-08-12T10:23:26;3.92;;;3.50;;
69310;SDS011;56430;48.154;16.458;2023-08-12T10:25:55;3.90;;;3.13;;
69310;SDS011;56430;48.154;16.458;2023-08-12T10:28:22;4.57;;;3.60;;
69310;SDS011;56430;48.154;16.458;2023-08-12T10:30:49;4.00;;;3.10;;
69310;SDS011;56430;48.154;16.458;2023-08-12T10:33:17;3.78;;;3.10;;
69310;SDS011;56430;48.154;16.458;2023-08-12T10:35:45;3.50;;;3.20;;
69310;SDS011;56430;48.154;16.458;2023-08-12T10:38:16;3.30;;;3.00;;
69310;SDS011;56430;48.154;16.458;2023-08-12T10:40:44;3.10;;;2.55;;
69310;SDS011;56430;48.154;16.458;2023-08-12T10:43:11;6.03;;;3.30;;
69310;SDS011;56430;48.154;16.458;2023-08-12T10:45:41;5.10;;;3.10;;
69310;SDS011;56430;48.154;16.458;2023-08-12T10:48:16;3.30;;;2.90;;
69310;SDS011;56430;48.154;16.458;2023-08-12T10:50:44;3.50;;;3.13;;
69310;SDS011;56430;48.154;16.458;2023-08-12T10:53:22;4.93;;;3.07;;
69310;SDS011;56430;48.154;16.458;2023-08-12T10:55:49;3.33;;;2.78;;
69310;SDS011;56430;48.154;16.458;2023-08-12T10:58:24;2.83;;;2.53;;
69310;SDS011;56430;48.154;16.458;2023-08-12T11:00:51;3.08;;;2.72;;
69310;SDS011;56430;48.154;16.458;2023-08-12T11:03:19;3.38;;;3.08;;
69310;SDS011;56430;48.154;16.458;2023-08-12T11:05:48;3.25;;;2.95;;
69310;SDS011;56430;48.154;16.458;2023-08-12T11:08:16;3.08;;;2.78;;
69310;SDS011;56430;48.154;16.458;2023-08-12T11:10:43;3.28;;;2.95;;
69310;SDS011;56430;48.154;16.458;2023-08-12T11:13:10;3.40;;;2.70;;
69310;SDS011;56430;48.154;16.458;2023-08-12T11:15:37;3.93;;;2.90;;
69310;SDS011;56430;48.154;16.458;2023-08-12T11:18:05;3.10;;;2.70;;
69310;SDS011;56430;48.154;16.458;2023-08-12T11:20:32;4.20;;;2.75;;
69310;SDS011;56430;48.154;16.458;2023-08-12T11:23:00;5.38;;;2.53;;
69310;SDS011;56430;48.154;16.458;2023-08-12T11:25:28;6.05;;;2.60;;
69310;SDS011;56430;48.154;16.458;2023-08-12T11:27:55;4.03;;;2.55;;
69310;SDS011;56430;48.154;16.458;2023-08-12T11:30:22;3.53;;;2.17;;
69310;SDS011;56430;48.154;16.458;2023-08-12T11:32:50;2.63;;;2.10;;
69310;SDS011;56430;48.154;16.458;2023-08-12T11:35:17;3.15;;;2.58;;
69310;SDS011;56430;48.154;16.458;2023-08-12T11:37:45;3.97;;;2.40;;
69310;SDS011;56430;48.154;16.458;2023-08-12T11:40:14;4.23;;;2.37;;
69310;SDS011;56430;48.154;16.458;2023-08-12T11:42:42;3.00;;;2.20;;
69310;SDS011;56430;48.154;16.458;2023-08-12T11:45:10;6.45;;;2.80;;
69310;SDS011;56430;48.154;16.458;2023-08-12T11:47:37;3.22;;;2.25;;
69310;SDS011;56430;48.154;16.458;2023-08-12T11:50:04;2.60;;;1.90;;
69310;SDS011;56430;48.154;16.458;2023-08-12T11:52:32;3.25;;;1.98;;
69310;SDS011;56430;48.154;16.458;2023-08-12T11:54:58;5.65;;;2.00;;
69310;SDS011;56430;48.154;16.458;2023-08-12T11:57:27;3.80;;;1.50;;
69310;SDS011;56430;48.154;16.458;2023-08-12T11:59:57;2.72;;;1.48;;
69310;SDS011;56430;48.154;16.458;2023-08-12T12:02:25;3.85;;;1.90;;
69310;SDS011;56430;48.154;16.458;2023-08-12T12:04:51;2.33;;;1.60;;
69310;SDS011;56430;48.154;16.458;2023-08-12T12:07:19;3.80;;;1.60;;
69310;SDS011;56430;48.154;16.458;2023-08-12T12:09:46;3.00;;;1.70;;
69310;SDS011;56430;48.154;16.458;2023-08-12T12:12:13;2.95;;;1.42;;
69310;SDS011;56430;48.154;16.458;2023-08-12T12:14:41;5.10;;;1.60;;
69310;SDS011;56430;48.154;16.458;2023-08-12T12:17:08;2.50;;;1.50;;
69310;SDS011;56430;48.154;16.458;2023-08-12T12:19:36;2.50;;;1.50;;
69310;SDS011;56430;48.154;16.458;2023-08-12T12:22:03;4.38;;;1.50;;
69310;SDS011;56430;48.154;16.458;2023-08-12T12:24:30;2.75;;;1.40;;
69310;SDS011;56430;48.154;16.458;2023-08-12T12:26:57;2.05;;;1.25;;
69310;SDS011;56430;48.154;16.458;2023-08-12T12:29:24;2.07;;;1.17;;
69310;SDS011;56430;48.154;16.458;2023-08-12T12:31:52;2.70;;;1.53;;
69310;SDS011;56430;48.154;16.458;2023-08-12T12:34:19;2.10;;;1.30;;
69310;SDS011;56430;48.154;16.458;2023-08-12T12:36:46;2.92;;;1.60;;
69310;SDS011;56430;48.154;16.458;2023-08-12T12:39:13;3.72;;;1.50;;
69310;SDS011;56430;48.154;16.458;2023-08-12T12:41:39;2.55;;;1.40;;
69310;SDS011;56430;48.154;16.458;2023-08-12T12:44:06;2.33;;;1.25;;
69310;SDS011;56430;48.154;16.458;2023-08-12T12:46:33;2.50;;;1.40;;
69310;SDS011;56430;48.154;16.458;2023-08-12T12:49:01;2.10;;;1.10;;
69310;SDS011;56430;48.154;16.458;2023-08-12T12:51:28;2.30;;;1.13;;
69310;SDS011;56430;48.154;16.458;2023-08-12T12:53:55;2.00;;;1.20;;
69310;SDS011;56430;48.154;16.458;2023-08-12T12:56:22;3.43;;;1.33;;
69310;SDS011;56430;48.154;16.458;2023-08-12T12:58:49;2.75;;;1.20;;
69310;SDS011;56430;48.154;16.458;2023-08-12T13:01:16;2.78;;;1.27;;
69310;SDS011;56430;48.154;16.458;2023-08-12T13:03:43;2.60;;;1.20;;
69310;SDS011;56430;48.154;16.458;2023-08-12T13:06:11;1.90;;;1.20;;
69310;SDS011;56430;48.154;16.458;2023-08-12T13:08:37;2.20;;;1.25;;
69310;SDS011;56430;48.154;16.458;2023-08-12T13:11:04;2.53;;;1.35;;
69310;SDS011;56430;48.154;16.458;2023-08-12T13:13:31;2.47;;;1.40;;
69310;SDS011;56430;48.154;16.458;2023-08-12T13:15:58;3.33;;;1.63;;
69310;SDS011;56430;48.154;16.458;2023-08-12T13:18:25;2.87;;;1.40;;
69310;SDS011;56430;48.154;16.458;2023-08-12T13:20:51;2.57;;;1.50;;
69310;SDS011;56430;48.154;16.458;2023-08-12T13:23:20;2.45;;;1.27;;
69310;SDS011;56430;48.154;16.458;2023-08-12T13:25:46;2.50;;;1.30;;
69310;SDS011;56430;48.154;16.458;2023-08-12T13:28:13;3.47;;;1.58;;
69310;SDS011;56430;48.154;16.458;2023-08-12T13:30:40;3.53;;;1.50;;
69310;SDS011;56430;48.154;16.458;2023-08-12T13:33:07;4.78;;;1.83;;
69310;SDS011;56430;48.154;16.458;2023-08-12T13:35:34;2.30;;;1.60;;
69310;SDS011;56430;48.154;16.458;2023-08-12T13:38:00;3.20;;;1.42;;
69310;SDS011;56430;48.154;16.458;2023-08-12T13:40:29;2.10;;;1.10;;
69310;SDS011;56430;48.154;16.458;2023-08-12T13:42:56;2.87;;;1.30;;
69310;SDS011;56430;48.154;16.458;2023-08-12T13:45:23;4.00;;;1.40;;
69310;SDS011;56430;48.154;16.458;2023-08-12T13:47:50;2.65;;;1.40;;
69310;SDS011;56430;48.154;16.458;2023-08-12T13:50:17;4.15;;;1.50;;
69310;SDS011;56430;48.154;16.458;2023-08-12T13:52:44;3.38;;;1.50;;
69310;SDS011;56430;48.154;16.458;2023-08-12T13:55:11;2.65;;;1.48;;
69310;SDS011;56430;48.154;16.458;2023-08-12T13:57:40;2.20;;;1.17;;
69310;SDS011;56430;48.154;16.458;2023-08-12T14:00:07;3.28;;;1.50;;
69310;SDS011;56430;48.154;16.458;2023-08-12T14:02:35;3.22;;;1.27;;
69310;SDS011;56430;48.154;16.458;2023-08-12T14:05:02;1.98;;;1.10;;
69310;SDS011;56430;48.154;16.458;2023-08-12T14:07:30;2.80;;;1.10;;
69310;SDS011;56430;48.154;16.458;2023-08-12T14:09:57;2.70;;;1.10;;
69310;SDS011;56430;48.154;16.458;2023-08-12T14:12:24;2.22;;;1.40;;
69310;SDS011;56430;48.154;16.458;2023-08-12T14:14:52;3.10;;;1.38;;
69310;SDS011;56430;48.154;16.458;2023-08-12T14:17:19;2.95;;;1.40;;
69310;SDS011;56430;48.154;16.458;2023-08-12T14:19:48;3.17;;;1.42;;
69310;SDS011;56430;48.154;16.458;2023-08-12T14:22:16;2.42;;;1.30;;
69310;SDS011;56430;48.154;16.458;2023-08-12T14:24:42;2.40;;;1.25;;
69310;SDS011;56430;48.154;16.458;2023-08-12T14:27:10;2.97;;;1.40;;
69310;SDS011;56430;48.154;16.458;2023-08-12T14:29:37;3.63;;;1.27;;
69310;SDS011;56430;48.154;16.458;2023-08-12T14:32:06;2.70;;;1.40;;
69310;SDS011;56430;48.154;16.458;2023-08-12T14:34:33;3.70;;;1.30;;